Time;durP1;ratioP1;P1;durP2;ratioP2;P2;SDS_P1;SDS_P2;PMS_P1;PMS_P2;Temp;Humidity;BMP_temperature;BMP_pressure;BME280_temperature;BME280_humidity;BME280_pressure;Samples;Min_cycle;Max_cycle;Signal;HPM_P1;HPM_P2
2022/05/07 00:04:54;;;;;;;16.27;9.60;;;;;;;-141.13;100.00;65498.22;10377035;28;20264;-67
2022/05/07 00:09:57;;;;;;;15.83;10.13;;;;;;;-141.13;100.00;65498.22;10376589;28;20287;-65
2022/05/07 00:15:01;;;;;;;15.83;10.03;;;;;;;-141.13;100.00;65498.22;10376583;28;20232;-68
2022/05/07 00:20:09;;;;;;;12.90;8.63;;;;;;;-141.13;100.00;65498.22;10377548;28;20664;-67
2022/05/07 00:25:12;;;;;;;18.93;10.20;;;;;;;-141.13;100.00;65498.22;10376049;28;20256;-66
2022/05/07 00:30:16;;;;;;;20.93;10.40;;;;;;;-141.13;100.00;65498.22;10376164;28;20218;-66
2022/05/07 00:35:20;;;;;;;19.50;10.40;;;;;;;-141.13;100.00;65498.22;10396298;28;20221;-73
2022/05/07 00:40:24;;;;;;;19.87;10.63;;;;;;;-141.13;100.00;65498.22;10416502;28;20235;-68
2022/05/07 00:45:27;;;;;;;19.87;10.53;;;;;;;-141.13;100.00;65498.22;10416520;28;20231;-70
2022/05/07 00:56:08;;;;;;;20.97;12.07;;;;;;;-141.13;100.00;65498.22;10250852;29;20241;-71
2022/05/07 01:01:12;;;;;;;23.03;11.47;;;;;;;-141.13;100.00;65498.22;10380556;28;20391;-70
2022/05/07 01:06:20;;;;;;;21.20;12.30;;;;;;;-141.13;100.00;65498.22;10418792;28;20554;-67
2022/05/07 01:11:23;;;;;;;18.23;12.47;;;;;;;-141.13;100.00;65498.22;10419043;28;20661;-67
2022/05/07 01:16:26;;;;;;;18.20;12.20;;;;;;;-141.13;100.00;65498.22;10418764;28;20236;-68
2022/05/07 01:21:31;;;;;;;22.27;13.20;;;;;;;-141.13;100.00;65498.22;10421454;28;20290;-66
2022/05/07 01:26:36;;;;;;;21.23;11.57;;;;;;;-141.13;100.00;65498.22;10419208;28;20243;-67
2022/05/07 01:31:39;;;;;;;22.70;12.43;;;;;;;-141.13;100.00;65498.22;10418417;28;20214;-66
2022/05/07 01:36:45;;;;;;;19.43;12.40;;;;;;;-141.13;100.00;65498.22;10417970;28;20224;-68
2022/05/07 01:41:48;;;;;;;20.50;12.70;;;;;;;-141.13;100.00;65498.22;10417681;28;20221;-70
2022/05/07 01:52:13;;;;;;;23.03;12.07;;;;;;;-141.13;100.00;65498.22;10417928;28;20221;-67
2022/05/07 01:57:17;;;;;;;23.17;13.73;;;;;;;-141.13;100.00;65498.22;10417869;28;20233;-65
2022/05/07 02:02:20;;;;;;;22.63;12.30;;;;;;;-141.13;100.00;65498.22;10417597;28;20286;-68
2022/05/07 02:07:25;;;;;;;21.03;12.17;;;;;;;-141.13;100.00;65498.22;10417572;28;20221;-70
2022/05/07 02:12:29;;;;;;;22.90;12.23;;;;;;;-141.13;100.00;65498.22;10417969;28;20227;-67
2022/05/07 02:17:32;;;;;;;18.67;10.27;;;;;;;-141.13;100.00;65498.22;10417102;28;20270;-68
2022/05/07 02:22:37;;;;;;;23.83;13.90;;;;;;;-141.13;100.00;65498.22;10417202;28;20231;-66
2022/05/07 02:27:42;;;;;;;19.27;11.17;;;;;;;-141.13;100.00;65498.22;10417545;28;20241;-67
2022/05/07 02:32:46;;;;;;;18.73;11.70;;;;;;;-141.13;100.00;65498.22;10417166;28;20213;-68
2022/05/07 02:37:51;;;;;;;18.90;11.10;;;;;;;-141.13;100.00;65498.22;10416780;28;20642;-70
2022/05/07 02:42:54;;;;;;;19.87;10.77;;;;;;;-141.13;100.00;65498.22;10416652;28;20255;-72
2022/05/07 02:47:57;;;;;;;20.77;10.67;;;;;;;-141.13;100.00;65498.22;10417049;28;20673;-71
2022/05/07 02:53:02;;;;;;;20.10;10.63;;;;;;;-141.13;100.00;65498.22;10422447;28;20217;-68
2022/05/07 02:58:07;;;;;;;21.90;11.20;;;;;;;-141.13;100.00;65498.22;10425146;28;20229;-70
2022/05/07 03:03:11;;;;;;;17.80;10.53;;;;;;;-141.13;100.00;65498.22;10423377;28;20535;-71
2022/05/07 03:08:16;;;;;;;17.70;10.47;;;;;;;-141.13;100.00;65498.22;10423192;28;20232;-71
2022/05/07 03:13:19;;;;;;;20.83;10.60;;;;;;;-141.13;100.00;65498.22;10423829;28;20312;-69
2022/05/07 03:18:22;;;;;;;19.67;11.43;;;;;;;-141.13;100.00;65498.22;10423240;28;20588;-71
2022/05/07 03:23:27;;;;;;;18.50;11.33;;;;;;;-141.13;100.00;65498.22;10422916;28;20242;-70
2022/05/07 03:28:30;;;;;;;25.23;11.37;;;;;;;-141.13;100.00;65498.22;10423853;28;20217;-71
2022/05/07 03:33:33;;;;;;;17.23;10.93;;;;;;;-141.13;100.00;65498.22;10422351;28;20707;-72
2022/05/07 03:38:38;;;;;;;19.53;10.97;;;;;;;-141.13;100.00;65498.22;10422339;28;20222;-68
2022/05/07 03:43:42;;;;;;;18.17;11.50;;;;;;;-141.13;100.00;65498.22;10422001;28;20561;-71
2022/05/07 03:48:45;;;;;;;21.20;11.37;;;;;;;-141.13;100.00;65498.22;10422024;28;20197;-71
2022/05/07 03:53:49;;;;;;;19.27;11.97;;;;;;;-141.13;100.00;65498.22;10421657;28;20194;-68
2022/05/07 03:58:53;;;;;;;20.97;12.10;;;;;;;-141.13;100.00;65498.22;10422747;28;20638;-68
2022/05/07 04:03:56;;;;;;;23.27;11.80;;;;;;;-141.13;100.00;65498.22;10421011;28;20197;-70
2022/05/07 04:09:01;;;;;;;23.00;12.77;;;;;;;-141.13;100.00;65498.22;10421320;28;20194;-69
2022/05/07 04:14:04;;;;;;;21.93;13.10;;;;;;;-141.13;100.00;65498.22;10421282;28;20653;-71
2022/05/07 04:19:07;;;;;;;19.80;12.83;;;;;;;-141.13;100.00;65498.22;10420823;28;20221;-73
2022/05/07 04:24:12;;;;;;;20.40;12.67;;;;;;;-141.13;100.00;65498.22;10420682;28;20229;-70
2022/05/07 04:29:16;;;;;;;24.13;13.90;;;;;;;-141.13;100.00;65498.22;10421857;28;20201;-72
2022/05/07 04:34:20;;;;;;;22.33;13.00;;;;;;;-141.13;100.00;65498.22;10419896;28;20227;-70
2022/05/07 04:39:24;;;;;;;25.17;14.83;;;;;;;-141.13;100.00;65498.22;10419932;28;20278;-70
2022/05/07 04:44:28;;;;;;;26.47;13.83;;;;;;;-141.13;100.00;65498.22;10419640;28;20208;-72
2022/05/07 04:49:31;;;;;;;23.50;14.30;;;;;;;-141.13;100.00;65498.22;10419601;28;20194;-71
2022/05/07 04:54:36;;;;;;;24.17;14.37;;;;;;;-141.13;100.00;65498.22;10419532;28;20201;-68
2022/05/07 04:59:39;;;;;;;24.17;13.63;;;;;;;-141.13;100.00;65498.22;10419723;28;20525;-71
2022/05/07 05:04:42;;;;;;;24.40;14.13;;;;;;;-141.13;100.00;65498.22;10419175;28;20198;-70
2022/05/07 05:09:47;;;;;;;24.53;15.97;;;;;;;-141.13;100.00;65498.22;10418714;28;20193;-71
2022/05/07 05:15:03;;;;;;;26.27;16.30;;;;;;;-141.13;100.00;65498.22;10418199;28;20601;-68
2022/05/07 05:20:08;;;;;;;31.60;17.13;;;;;;;-141.13;100.00;65498.22;10417700;28;20211;-67
2022/05/07 05:25:12;;;;;;;32.67;17.13;;;;;;;-141.13;100.00;65498.22;10415074;28;20274;-67
2022/05/07 05:30:16;;;;;;;27.60;15.80;;;;;;;-141.13;100.00;65498.22;10415741;28;20237;-67
2022/05/07 05:35:19;;;;;;;31.60;18.07;;;;;;;-141.13;100.00;65498.22;10415354;28;20229;-69
2022/05/07 05:40:24;;;;;;;27.67;15.97;;;;;;;-141.13;100.00;65498.22;10415197;28;20533;-70
2022/05/07 05:45:28;;;;;;;25.13;14.77;;;;;;;-141.13;100.00;65498.22;10415102;28;20228;-67
2022/05/07 05:50:32;;;;;;;23.63;13.53;;;;;;;-141.13;100.00;65498.22;10415288;28;20228;-67
2022/05/07 05:55:37;;;;;;;16.03;10.80;;;;;;;-141.13;100.00;65498.22;10060031;28;10000385;-66
2022/05/07 06:00:41;;;;;;;16.20;10.07;;;;;;;-141.13;100.00;65498.22;10374609;28;20447;-67
2022/05/07 06:05:44;;;;;;;15.27;9.03;;;;;;;-141.13;100.00;65498.22;10378074;28;20607;-61
2022/05/07 06:10:52;;;;;;;19.83;10.10;;;;;;;-141.13;100.00;65498.22;10373821;28;20218;-68
2022/05/07 06:15:57;;;;;;;15.33;10.00;;;;;;;-141.13;100.00;65498.22;10373434;28;20234;-67
2022/05/07 06:21:03;;;;;;;13.10;8.60;;;;;;;-141.13;100.00;65498.22;10373023;28;20549;-65
2022/05/07 06:31:29;;;;;;;27.77;17.93;;;;;;;-141.13;100.00;65498.22;10380776;28;20226;-69
2022/05/07 06:36:33;;;;;;;13.67;8.37;;;;;;;-141.13;100.00;65498.22;10380501;28;20732;-68
2022/05/07 06:41:38;;;;;;;14.00;8.57;;;;;;;-141.13;100.00;65498.22;10380275;28;20216;-69
2022/05/07 06:46:41;;;;;;;14.90;7.27;;;;;;;-141.13;100.00;65498.22;10380137;28;20222;-70
2022/05/07 06:51:44;;;;;;;13.67;7.30;;;;;;;-141.13;100.00;65498.22;10397203;28;20218;-67
2022/05/07 06:56:49;;;;;;;19.27;8.07;;;;;;;-141.13;100.00;65498.22;10420420;28;20687;-66
2022/05/07 07:01:54;;;;;;;12.40;6.20;;;;;;;-141.13;100.00;65498.22;10420409;28;20218;-69
2022/05/07 07:06:57;;;;;;;19.23;7.63;;;;;;;-141.13;100.00;65498.22;10419573;28;20274;-66
2022/05/07 07:12:02;;;;;;;15.13;5.40;;;;;;;-141.13;100.00;65498.22;10419965;28;20218;-70
2022/05/07 07:17:05;;;;;;;12.47;4.67;;;;;;;-141.13;100.00;65498.22;10419813;28;20244;-67
2022/05/07 07:22:09;;;;;;;7.57;3.60;;;;;;;-141.13;100.00;65498.22;10420112;28;20213;-70
2022/05/07 07:27:14;;;;;;;8.03;3.20;;;;;;;-141.13;100.00;65498.22;10419560;28;20757;-67
2022/05/07 07:32:17;;;;;;;6.77;3.73;;;;;;;-141.13;100.00;65498.22;10419365;28;20561;-70
2022/05/07 07:37:20;;;;;;;7.70;3.77;;;;;;;-141.13;100.00;65498.22;10418764;28;20229;-73
2022/05/07 07:42:25;;;;;;;7.73;3.70;;;;;;;-141.13;100.00;65498.22;10419002;28;20296;-69
2022/05/07 07:52:54;;;;;;;7.87;3.53;;;;;;;-141.13;100.00;65498.22;10403437;28;20683;-66
2022/05/07 07:58:00;;;;;;;11.67;4.10;;;;;;;-141.13;100.00;65498.22;10390204;28;20222;-66
2022/05/07 08:03:06;;;;;;;6.43;3.27;;;;;;;-141.13;100.00;65498.22;10377100;28;20253;-70
2022/05/07 08:13:34;;;;;;;8.17;3.37;;;;;;;-141.13;100.00;65498.22;10376717;28;20228;-71
2022/05/07 08:18:39;;;;;;;6.63;3.07;;;;;;;-141.13;100.00;65498.22;10376768;28;20313;-73
2022/05/07 08:23:42;;;;;;;10.07;2.93;;;;;;;-141.13;100.00;65498.22;10376465;28;20248;-67
2022/05/07 08:28:48;;;;;;;7.07;2.20;;;;;;;-141.13;100.00;65498.22;10376451;28;20264;-71
2022/05/07 08:33:52;;;;;;;3.97;1.70;;;;;;;-141.13;100.00;65498.22;10376781;28;20668;-72
2022/05/07 08:38:55;;;;;;;5.37;1.67;;;;;;;-141.13;100.00;65498.22;10375986;28;20238;-70
2022/05/07 08:44:00;;;;;;;7.70;4.30;;;;;;;-141.13;100.00;65498.22;10375812;28;20589;-68
2022/05/07 08:49:04;;;;;;;4.97;2.20;;;;;;;-141.13;100.00;65498.22;10374774;28;20214;-70
2022/05/07 08:54:10;;;;;;;14.20;9.00;;;;;;;-141.13;100.00;65498.22;10376036;28;20666;-67
2022/05/07 08:59:14;;;;;;;6.40;2.20;;;;;;;-141.13;100.00;65498.22;10413220;28;20229;-67
2022/05/07 09:04:18;;;;;;;5.60;1.40;;;;;;;-141.13;100.00;65498.22;10415932;28;20749;-70
2022/05/07 09:09:21;;;;;;;5.43;1.57;;;;;;;-141.13;100.00;65498.22;10415586;28;20308;-67
2022/05/07 09:14:31;;;;;;;3.57;1.33;;;;;;;-141.13;100.00;65498.22;10415584;28;20222;-70
2022/05/07 09:19:34;;;;;;;5.43;1.47;;;;;;;-141.13;100.00;65498.22;10415358;28;20777;-71
2022/05/07 09:24:38;;;;;;;3.37;1.50;;;;;;;-141.13;100.00;65498.22;10416013;28;20728;-68
2022/05/07 09:29:43;;;;;;;21.93;11.70;;;;;;;-141.13;100.00;65498.22;10414998;28;20249;-67
2022/05/07 09:40:11;;;;;;;5.33;1.30;;;;;;;-141.13;100.00;65498.22;10413311;28;20294;-64
2022/05/07 09:45:17;;;;;;;3.97;1.60;;;;;;;-141.13;100.00;65498.22;10411168;28;20309;-65
2022/05/07 09:50:23;;;;;;;2.87;0.90;;;;;;;-141.13;100.00;65498.22;10414597;28;20304;-65
2022/05/07 10:01:11;;;;;;;19.83;12.13;;;;;;;-141.13;100.00;65498.22;10419052;28;20317;-67
2022/05/07 10:06:31;;;;;;;3.45;0.90;;;;;;;-141.13;100.00;65498.22;10422796;28;20665;-67
2022/05/07 10:11:35;;;;;;;4.07;0.82;;;;;;;-141.13;100.00;65498.22;10423178;28;20239;-65
2022/05/07 10:16:41;;;;;;;3.58;1.10;;;;;;;-141.13;100.00;65498.22;10422262;28;20307;-70
2022/05/07 10:21:54;;;;;;;3.58;1.13;;;;;;;-141.13;100.00;65498.22;10406025;28;20240;-70
2022/05/07 10:26:57;;;;;;;6.20;0.88;;;;;;;-141.13;100.00;65498.22;10422555;28;20673;-67
2022/05/07 10:32:06;;;;;;;3.90;1.58;;;;;;;-141.13;100.00;65498.22;10421685;28;20218;-70
2022/05/07 10:37:09;;;;;;;15.10;7.47;;;;;;;-141.13;100.00;65498.22;10421531;28;20249;-67
2022/05/07 10:42:16;;;;;;;7.35;1.20;;;;;;;-141.13;100.00;65498.22;10421211;28;20230;-65
2022/05/07 10:47:20;;;;;;;;;;;;;;;-141.13;100.00;65498.22;10421350;28;19929;-66
2022/05/07 10:52:31;;;;;;;;;;;;;;;-141.13;100.00;65498.22;10421578;28;19925;-65
2022/05/07 10:57:46;;;;;;;;;;;;;;;-141.13;100.00;65498.22;10395665;28;20008;-69
2022/05/07 11:02:51;;;;;;;;;;;;;;;-141.13;100.00;65498.22;10378678;28;19936;-66
2022/05/07 11:07:57;;;;;;;;;;;;;;;-141.13;100.00;65498.22;10378769;28;20071;-69
2022/05/07 11:13:07;;;;;;;;;;;;;;;-141.13;100.00;65498.22;10377932;28;20266;-68
2022/05/07 11:18:15;;;;;;;;;;;;;;;-141.13;100.00;65498.22;10379298;28;19933;-68
2022/05/07 11:23:19;;;;;;;;;;;;;;;-141.13;100.00;65498.22;10378395;28;20366;-68
2022/05/07 11:28:25;;;;;;;;;;;;;;;-141.13;100.00;65498.22;10379077;28;19926;-64
2022/05/07 11:33:30;;;;;;;;;;;;;;;-141.13;100.00;65498.22;10378293;28;20492;-67
2022/05/07 11:38:33;;;;;;;;;;;;;;;-141.13;100.00;65498.22;10377214;28;19940;-66
2022/05/07 11:49:06;;;;;;;;;;;;;;;-141.13;100.00;65498.22;10418830;28;19929;-65
2022/05/07 11:54:10;;;;;;;;;;;;;;;-141.13;100.00;65498.22;10418289;28;20285;-68
2022/05/07 11:59:14;;;;;;;;;;;;;;;-141.13;100.00;65498.22;10379879;28;20236;-69
2022/05/07 12:04:19;;;;;;;;;;;;;;;-141.13;100.00;65498.22;10379298;28;19925;-70
2022/05/07 12:09:22;;;;;;;;;;;;;;;-141.13;100.00;65498.22;10379324;28;19957;-73
2022/05/07 12:14:25;;;;;;;;;;;;;;;-141.13;100.00;65498.22;10380481;28;19931;-72
2022/05/07 12:19:30;;;;;;;;;;;;;;;-141.13;100.00;65498.22;10380383;28;20369;-67
2022/05/07 12:29:53;;;;;;;;;;;;;;;-141.13;100.00;65498.22;10379832;28;20261;-71
2022/05/07 12:34:59;;;;;;;;;;;;;;;-141.13;100.00;65498.22;10379714;28;20278;-70
2022/05/07 12:40:02;;;;;;;;;;;;;;;-141.13;100.00;65498.22;10379540;28;20266;-72
2022/05/07 12:45:07;;;;;;;;;;;;;;;-141.13;100.00;65498.22;10379427;28;19926;-69
2022/05/07 12:50:11;;;;;;;;;;;;;;;-141.13;100.00;65498.22;10376294;28;19936;-72
2022/05/07 12:55:15;;;;;;;;;;;;;;;-141.13;100.00;65498.22;10379955;28;20377;-72
2022/05/07 13:00:18;;;;;;;;;;;;;;;-141.13;100.00;65498.22;10416492;28;20276;-70
2022/05/07 13:05:22;;;;;;;;;;;;;;;-141.13;100.00;65498.22;10416227;28;20055;-68
2022/05/07 13:10:45;;;;;;;;;;;;;;;-141.13;100.00;65498.22;10416311;28;19936;-70
2022/05/07 13:15:49;;;;;;;;;;;;;;;-141.13;100.00;65498.22;10416292;28;19935;-67
2022/05/07 13:20:53;;;;;;;;;;;;;;;-141.13;100.00;65498.22;10415878;28;19929;-71
2022/05/07 13:25:57;;;;;;;;;;;;;;;-141.13;100.00;65498.22;10398603;28;19928;-68
2022/05/07 13:31:00;;;;;;;;;;;;;;;-141.13;100.00;65498.22;10415276;28;19925;-66
2022/05/07 13:36:05;;;;;;;;;;;;;;;-141.13;100.00;65498.22;10414628;28;20326;-67
2022/05/07 13:41:08;;;;;;;;;;;;;;;-141.13;100.00;65498.22;10415296;28;19967;-67
2022/05/07 13:46:11;;;;;;;;;;;;;;;-141.13;100.00;65498.22;10415032;28;20011;-69
2022/05/07 13:51:18;;;;;;;;;;;;;;;-141.13;100.00;65498.22;10416228;28;19951;-72
2022/05/07 13:56:21;;;;;;;;;;;;;;;-141.13;100.00;65498.22;10414849;28;19925;-66
2022/05/07 14:01:24;;;;;;;;;;;;;;;-141.13;100.00;65498.22;10414969;28;19936;-69
2022/05/07 14:06:29;;;;;;;;;;;;;;;-141.13;100.00;65498.22;10414849;28;20342;-70
2022/05/07 14:11:32;;;;;;;;;;;;;;;-141.13;100.00;65498.22;10414662;28;20598;-68
2022/05/07 14:16:35;;;;;;;;;;;;;;;-141.13;100.00;65498.22;10414932;28;19971;-69
2022/05/07 14:21:42;;;;;;;;;;;;;;;-141.13;100.00;65498.22;10415041;28;20583;-68
2022/05/07 14:26:45;;;;;;;;;;;;;;;-141.13;100.00;65498.22;10414091;28;20251;-66
2022/05/07 14:31:48;;;;;;;;;;;;;;;-141.13;100.00;65498.22;10414473;28;19935;-66
2022/05/07 14:36:53;;;;;;;;;;;;;;;-141.13;100.00;65498.22;10414496;28;19933;-69
2022/05/07 14:41:56;;;;;;;;;;;;;;;-141.13;100.00;65498.22;10413921;28;19932;-69
2022/05/07 14:47:00;;;;;;;;;;;;;;;-141.13;100.00;65498.22;10418333;28;19925;-68
2022/05/07 14:52:05;;;;;;;;;;;;;;;-141.13;100.00;65498.22;10422362;28;20020;-67
2022/05/07 14:57:19;;;;;;;;;;;;;;;-141.13;100.00;65498.22;10424359;28;19925;-69
2022/05/07 15:02:22;;;;;;;;;;;;;;;-141.13;100.00;65498.22;10424175;28;19925;-71
2022/05/07 15:07:27;;;;;;;;;;;;;;;-141.13;100.00;65498.22;10424124;28;19929;-71
2022/05/07 15:12:31;;;;;;;;;;;;;;;-141.13;100.00;65498.22;10424422;28;19925;-68
2022/05/07 15:17:34;;;;;;;;;;;;;;;-141.13;100.00;65498.22;10424131;28;19932;-70
2022/05/07 15:22:38;;;;;;;;;;;;;;;-141.13;100.00;65498.22;10423241;28;20051;-72
2022/05/07 15:27:41;;;;;;;;;;;;;;;-141.13;100.00;65498.22;10425888;28;20501;-68
2022/05/07 15:38:13;;;;;;;5.00;1.80;;;;;;;-141.13;100.00;65498.22;10367453;28;20539;-68
2022/05/07 15:43:16;;;;;;;;;;;;;;;-141.13;100.00;65498.22;10422527;28;20225;-67
2022/05/07 15:48:19;;;;;;;;;;;;;;;-141.13;100.00;65498.22;10422459;28;19925;-71
2022/05/07 15:53:24;;;;;;;;;;;;;;;-141.13;100.00;65498.22;10422387;28;19925;-73
2022/05/07 15:58:27;;;;;;;;;;;;;;;-141.13;100.00;65498.22;10422225;28;19940;-68
2022/05/07 16:03:30;;;;;;;2.90;1.20;;;;;;;-141.13;100.00;65498.22;10419812;28;20038;-68
2022/05/07 16:08:35;;;;;;;7.07;1.30;;;;;;;-141.13;100.00;65498.22;10398310;28;20238;-72
2022/05/07 16:13:39;;;;;;;6.60;2.00;;;;;;;-141.13;100.00;65498.22;10379816;28;20234;-71
2022/05/07 16:18:42;;;;;;;32.23;13.90;;;;;;;-141.13;100.00;65498.22;10379938;28;20549;-70
2022/05/07 16:29:08;;;;;;;6.30;1.40;;;;;;;-141.13;100.00;65498.22;10461156;28;20436;-69
2022/05/07 16:34:11;;;;;;;6.63;2.90;;;;;;;-141.13;100.00;65498.22;10460761;28;20691;-71
2022/05/07 16:39:16;;;;;;;6.00;1.77;;;;;;;-141.13;100.00;65498.22;10460722;28;20307;-72
2022/05/07 16:44:19;;;;;;;5.10;1.77;;;;;;;-141.13;100.00;65498.22;10460773;28;20300;-72
2022/05/07 16:49:22;;;;;;;4.83;1.40;;;;;;;-141.13;100.00;65498.22;10460650;28;20239;-67
2022/05/07 16:54:27;;;;;;;5.50;1.80;;;;;;;-141.13;100.00;65498.22;10423552;28;20249;-67
2022/05/07 16:59:30;;;;;;;3.93;1.50;;;;;;;-141.13;100.00;65498.22;10416066;28;20224;-70
2022/05/07 17:04:34;;;;;;;3.67;1.30;;;;;;;-141.13;100.00;65498.22;10415684;28;20228;-67
2022/05/07 17:09:41;;;;;;;4.93;2.03;;;;;;;-141.13;100.00;65498.22;10413439;28;20207;-68
2022/05/07 17:14:47;;;;;;;21.30;11.97;;;;;;;-141.13;100.00;65498.22;10375124;28;20640;-68
2022/05/07 17:19:51;;;;;;;9.90;4.17;;;;;;;-141.13;100.00;65498.22;10374893;28;20246;-69
2022/05/07 17:24:55;;;;;;;4.20;2.03;;;;;;;-141.13;100.00;65498.22;10374979;28;20222;-72
2022/05/07 17:29:59;;;;;;;7.83;2.90;;;;;;;-141.13;100.00;65498.22;10377324;28;20206;-68
2022/05/07 17:35:04;;;;;;;4.70;1.87;;;;;;;-141.13;100.00;65498.22;10376625;28;20709;-59
2022/05/07 17:40:09;;;;;;;6.87;2.23;;;;;;;-141.13;100.00;65498.22;10360573;28;20323;-64
2022/05/07 17:45:14;;;;;;;9.20;3.60;;;;;;;-141.13;100.00;65498.22;10377175;28;20301;-60
2022/05/07 17:50:17;;;;;;;11.37;3.07;;;;;;;-141.13;100.00;65498.22;10376895;28;20781;-64
2022/05/07 17:55:23;;;;;;;6.13;2.50;;;;;;;-141.13;100.00;65498.22;10377746;28;20218;-67
2022/05/07 18:00:28;;;;;;;8.07;2.40;;;;;;;-141.13;100.00;65498.22;10411037;28;20236;-68
2022/05/07 18:05:32;;;;;;;10.57;3.73;;;;;;;-141.13;100.00;65498.22;10417353;28;20282;-61
2022/05/07 18:10:36;;;;;;;15.63;7.40;;;;;;;-141.13;100.00;65498.22;10417097;28;20561;-64
2022/05/07 18:15:40;;;;;;;16.47;7.87;;;;;;;-141.13;100.00;65498.22;10417227;28;20548;-62
2022/05/07 18:20:43;;;;;;;17.03;7.60;;;;;;;-141.13;100.00;65498.22;10420026;28;20255;-63
2022/05/07 18:25:48;;;;;;;55.47;31.20;;;;;;;-141.13;100.00;65498.22;10424951;28;20233;-60
2022/05/07 18:30:51;;;;;;;21.93;10.53;;;;;;;-141.13;100.00;65498.22;10424413;28;20232;-63
2022/05/07 18:42:47;;;;;;;21.33;10.93;;;;;;;-141.13;100.00;65498.22;10424564;28;20367;-64
2022/05/07 18:46:46;;;;;;;24.77;11.70;;;;;;;-141.13;100.00;65498.22;10369182;28;20233;-63
2022/05/07 18:51:51;;;;;;;30.50;14.37;;;;;;;-141.13;100.00;65498.22;10424576;28;20681;-70
2022/05/07 19:02:17;;;;;;;29.13;14.70;;;;;;;-141.13;100.00;65498.22;10403810;28;20243;-67
2022/05/07 19:07:21;;;;;;;19.00;9.23;;;;;;;-141.13;100.00;65498.22;10420366;28;20240;-69
2022/05/07 19:12:26;;;;;;;18.53;7.80;;;;;;;-141.13;100.00;65498.22;10420377;28;20721;-70
2022/05/07 19:17:29;;;;;;;15.47;7.90;;;;;;;-141.13;100.00;65498.22;10420628;28;20312;-71
2022/05/07 19:22:32;;;;;;;14.13;6.83;;;;;;;-141.13;100.00;65498.22;10033415;28;10000518;-70
2022/05/07 19:27:37;;;;;;;15.30;7.20;;;;;;;-141.13;100.00;65498.22;10378950;28;20234;-70
2022/05/07 19:32:41;;;;;;;20.50;7.50;;;;;;;-141.13;100.00;65498.22;10377522;28;20218;-67
2022/05/07 19:37:45;;;;;;;19.77;7.77;;;;;;;-141.13;100.00;65498.22;10402993;28;20218;-68
2022/05/07 19:42:52;;;;;;;14.53;7.23;;;;;;;-141.13;100.00;65498.22;10418802;28;20229;-68
2022/05/07 19:47:55;;;;;;;17.77;7.83;;;;;;;-141.13;100.00;65498.22;10419032;28;20271;-67
2022/05/07 19:53:01;;;;;;;21.03;7.93;;;;;;;-141.13;100.00;65498.22;10429498;28;20222;-66
2022/05/07 19:58:06;;;;;;;18.60;7.93;;;;;;;-141.13;100.00;65498.22;10463167;28;20217;-70
2022/05/07 20:03:10;;;;;;;20.17;10.30;;;;;;;-141.13;100.00;65498.22;10445253;28;20321;-68
2022/05/07 20:08:13;;;;;;;17.70;8.27;;;;;;;-141.13;100.00;65498.22;10445756;28;20254;-66
2022/05/07 20:13:18;;;;;;;17.63;8.03;;;;;;;-141.13;100.00;65498.22;10462247;28;20246;-70
2022/05/07 20:18:21;;;;;;;19.17;9.43;;;;;;;-141.13;100.00;65498.22;10462529;28;20299;-70
2022/05/07 20:23:25;;;;;;;17.90;9.70;;;;;;;-141.13;100.00;65498.22;10461983;28;20303;-69
2022/05/07 20:28:30;;;;;;;24.60;12.00;;;;;;;-141.13;100.00;65498.22;10461727;28;20291;-71
2022/05/07 20:33:33;;;;;;;21.93;12.60;;;;;;;-141.13;100.00;65498.22;10461940;28;20297;-69
2022/05/07 20:38:37;;;;;;;21.50;11.23;;;;;;;-141.13;100.00;65498.22;10461154;28;20227;-71
2022/05/07 20:49:03;;;;;;;21.10;12.90;;;;;;;-141.13;100.00;65498.22;10461139;28;20585;-72
2022/05/07 20:54:07;;;;;;;22.87;12.90;;;;;;;-141.13;100.00;65498.22;10460771;28;20398;-70
2022/05/07 20:59:12;;;;;;;22.97;14.43;;;;;;;-141.13;100.00;65498.22;10460523;28;20212;-67
2022/05/07 21:04:18;;;;;;;24.67;15.20;;;;;;;-141.13;100.00;65498.22;10460780;28;20228;-70
2022/05/07 21:09:21;;;;;;;28.30;15.03;;;;;;;-141.13;100.00;65498.22;10460878;28;20215;-68
2022/05/07 21:14:26;;;;;;;24.17;15.30;;;;;;;-141.13;100.00;65498.22;10460289;28;20221;-68
2022/05/07 21:19:29;;;;;;;19.97;12.90;;;;;;;-141.13;100.00;65498.22;10459880;28;20192;-70
2022/05/07 21:29:55;;;;;;;25.33;15.03;;;;;;;-141.13;100.00;65498.22;10459719;28;20189;-68
2022/05/07 21:34:59;;;;;;;16.90;10.93;;;;;;;-141.13;100.00;65498.22;10459136;28;20199;-71
2022/05/07 21:40:03;;;;;;;19.53;11.63;;;;;;;-141.13;100.00;65498.22;10461896;28;20211;-72
2022/05/07 21:45:09;;;;;;;18.80;12.33;;;;;;;-141.13;100.00;65498.22;10459396;28;20251;-69
2022/05/07 21:55:30;;;;;;;21.17;11.00;;;;;;;-141.13;100.00;65498.22;10462005;28;20204;-71
2022/05/07 22:00:56;;;;;;;17.33;11.33;;;;;;;-141.13;100.00;65498.22;10467914;28;20289;-69
2022/05/07 22:06:14;;;;;;;19.17;11.93;;;;;;;-141.13;100.00;65498.22;10468169;28;20730;-66
2022/05/07 22:11:18;;;;;;;18.23;11.87;;;;;;;-141.13;100.00;65498.22;10467404;28;20226;-70
2022/05/07 22:16:25;;;;;;;16.67;11.93;;;;;;;-141.13;100.00;65498.22;10464665;28;20188;-73
2022/05/07 22:21:28;;;;;;;20.77;13.40;;;;;;;-141.13;100.00;65498.22;10463910;28;20277;-69
2022/05/07 22:26:35;;;;;;;16.17;11.60;;;;;;;-141.13;100.00;65498.22;10463712;28;20568;-68
2022/05/07 22:31:40;;;;;;;22.97;12.73;;;;;;;-141.13;100.00;65498.22;10463753;28;20193;-66
2022/05/07 22:36:43;;;;;;;19.67;11.50;;;;;;;-141.13;100.00;65498.22;10463715;28;20258;-66
2022/05/07 22:41:47;;;;;;;20.63;11.47;;;;;;;-141.13;100.00;65498.22;10080639;28;9999939;-68
2022/05/07 22:46:53;;;;;;;17.40;11.13;;;;;;;-141.13;100.00;65498.22;10421771;28;20193;-70
2022/05/07 22:51:56;;;;;;;18.57;11.80;;;;;;;-141.13;100.00;65498.22;10421266;28;20637;-72
2022/05/07 22:56:59;;;;;;;19.90;11.47;;;;;;;-141.13;100.00;65498.22;10421619;28;20211;-69
2022/05/07 23:02:04;;;;;;;21.37;11.23;;;;;;;-141.13;100.00;65498.22;10421365;28;20229;-72
2022/05/07 23:07:08;;;;;;;24.23;11.57;;;;;;;-141.13;100.00;65498.22;10419421;28;20197;-70
2022/05/07 23:12:12;;;;;;;16.27;11.10;;;;;;;-141.13;100.00;65498.22;10420837;28;20217;-67
2022/05/07 23:17:17;;;;;;;20.27;10.37;;;;;;;-141.13;100.00;65498.22;10420218;28;20549;-68
2022/05/07 23:22:21;;;;;;;17.10;10.13;;;;;;;-141.13;100.00;65498.22;10420337;28;20720;-72
2022/05/07 23:27:24;;;;;;;16.30;10.43;;;;;;;-141.13;100.00;65498.22;10419996;28;20819;-69
2022/05/07 23:32:29;;;;;;;15.10;9.70;;;;;;;-141.13;100.00;65498.22;10420472;28;20217;-69
2022/05/07 23:37:32;;;;;;;17.40;9.27;;;;;;;-141.13;100.00;65498.22;10419567;28;20685;-69
2022/05/07 23:42:35;;;;;;;14.83;8.37;;;;;;;-141.13;100.00;65498.22;10378095;28;20301;-68
2022/05/07 23:47:40;;;;;;;16.47;8.90;;;;;;;-141.13;100.00;65498.22;10378431;28;20732;-70
2022/05/07 23:52:44;;;;;;;15.03;8.80;;;;;;;-141.13;100.00;65498.22;10378469;28;20233;-71
2022/05/07 23:57:47;;;;;;;14.50;7.83;;;;;;;-141.13;100.00;65498.22;10377465;28;20620;-67
